sensor_id;sensor_type;location;lat;lon;timestamp;pressure;altitude;pressure_sealevel;temperature;humidity
59409;BME280;45213;32.654;-115.458;2022-08-19T00:00:25;100424.53;;;41.82;22.78
59409;BME280;45213;32.654;-115.458;2022-08-19T00:02:53;100431.72;;;41.89;23.14
59409;BME280;45213;32.654;-115.458;2022-08-19T00:05:21;100433.41;;;41.84;22.98
59409;BME280;45213;32.654;-115.458;2022-08-19T00:07:48;100427.09;;;41.90;22.82
59409;BME280;45213;32.654;-115.458;2022-08-19T00:10:16;100428.72;;;41.78;22.69
59409;BME280;45213;32.654;-115.458;2022-08-19T00:12:46;100431.91;;;41.88;22.99
59409;BME280;45213;32.654;-115.458;2022-08-19T00:15:19;100439.03;;;42.10;22.23
59409;BME280;45213;32.654;-115.458;2022-08-19T00:17:49;100435.56;;;41.95;22.50
59409;BME280;45213;32.654;-115.458;2022-08-19T00:20:18;100423.00;;;42.01;22.76
59409;BME280;45213;32.654;-115.458;2022-08-19T00:22:46;100422.78;;;41.74;23.08
59409;BME280;45213;32.654;-115.458;2022-08-19T00:25:16;100427.91;;;41.56;23.12
59409;BME280;45213;32.654;-115.458;2022-08-19T00:27:43;100422.63;;;41.54;22.82
59409;BME280;45213;32.654;-115.458;2022-08-19T00:30:12;100416.16;;;41.34;22.77
59409;BME280;45213;32.654;-115.458;2022-08-19T00:32:39;100433.38;;;41.13;22.95
59409;BME280;45213;32.654;-115.458;2022-08-19T00:35:06;100424.31;;;41.12;22.93
59409;BME280;45213;32.654;-115.458;2022-08-19T00:37:33;100422.91;;;41.16;23.14
59409;BME280;45213;32.654;-115.458;2022-08-19T00:40:04;100427.16;;;41.19;23.43
59409;BME280;45213;32.654;-115.458;2022-08-19T00:42:31;100417.47;;;41.16;23.08
59409;BME280;45213;32.654;-115.458;2022-08-19T00:44:58;100421.44;;;41.14;23.08
59409;BME280;45213;32.654;-115.458;2022-08-19T00:47:25;100422.34;;;41.06;23.13
59409;BME280;45213;32.654;-115.458;2022-08-19T00:49:55;100425.97;;;41.06;23.09
59409;BME280;45213;32.654;-115.458;2022-08-19T00:52:29;100426.03;;;42.19;21.90
59409;BME280;45213;32.654;-115.458;2022-08-19T00:54:59;100422.47;;;41.84;22.17
59409;BME280;45213;32.654;-115.458;2022-08-19T00:57:34;100423.47;;;41.11;23.63
59409;BME280;45213;32.654;-115.458;2022-08-19T01:00:04;100427.81;;;40.84;24.16
59409;BME280;45213;32.654;-115.458;2022-08-19T01:02:32;100417.78;;;40.70;24.00
59409;BME280;45213;32.654;-115.458;2022-08-19T01:05:01;100406.22;;;40.53;24.01
59409;BME280;45213;32.654;-115.458;2022-08-19T01:07:29;100420.91;;;40.52;24.95
59409;BME280;45213;32.654;-115.458;2022-08-19T01:09:56;100416.03;;;40.47;25.12
59409;BME280;45213;32.654;-115.458;2022-08-19T01:12:23;100400.81;;;40.38;24.77
59409;BME280;45213;32.654;-115.458;2022-08-19T01:14:50;100408.59;;;40.41;25.28
59409;BME280;45213;32.654;-115.458;2022-08-19T01:17:19;100411.31;;;40.41;24.89
59409;BME280;45213;32.654;-115.458;2022-08-19T01:19:46;100402.97;;;40.28;25.60
59409;BME280;45213;32.654;-115.458;2022-08-19T01:24:51;100403.69;;;40.22;25.54
59409;BME280;45213;32.654;-115.458;2022-08-19T01:27:18;100402.09;;;40.13;25.35
59409;BME280;45213;32.654;-115.458;2022-08-19T01:29:45;100402.75;;;40.15;25.62
59409;BME280;45213;32.654;-115.458;2022-08-19T01:32:15;100406.50;;;39.99;26.38
59409;BME280;45213;32.654;-115.458;2022-08-19T01:34:42;100394.50;;;39.93;26.30
59409;BME280;45213;32.654;-115.458;2022-08-19T01:37:14;100383.78;;;39.92;26.15
59409;BME280;45213;32.654;-115.458;2022-08-19T01:39:41;100386.50;;;39.92;26.26
59409;BME280;45213;32.654;-115.458;2022-08-19T01:42:09;100384.38;;;39.79;26.39
59409;BME280;45213;32.654;-115.458;2022-08-19T01:44:41;100384.75;;;39.76;26.21
59409;BME280;45213;32.654;-115.458;2022-08-19T01:47:08;100385.72;;;39.68;26.54
59409;BME280;45213;32.654;-115.458;2022-08-19T01:49:40;100384.22;;;39.65;26.37
59409;BME280;45213;32.654;-115.458;2022-08-19T01:52:07;100392.06;;;39.60;26.54
59409;BME280;45213;32.654;-115.458;2022-08-19T01:54:33;100389.72;;;39.57;26.72
59409;BME280;45213;32.654;-115.458;2022-08-19T01:57:08;100393.19;;;39.51;26.92
59409;BME280;45213;32.654;-115.458;2022-08-19T01:59:35;100396.47;;;39.46;26.52
59409;BME280;45213;32.654;-115.458;2022-08-19T02:02:05;100405.03;;;39.35;27.16
59409;BME280;45213;32.654;-115.458;2022-08-19T02:04:35;100414.41;;;39.41;27.00
59409;BME280;45213;32.654;-115.458;2022-08-19T02:07:05;100402.13;;;39.37;26.89
59409;BME280;45213;32.654;-115.458;2022-08-19T02:09:34;100416.88;;;39.28;27.79
59409;BME280;45213;32.654;-115.458;2022-08-19T02:12:04;100412.81;;;39.23;27.34
59409;BME280;45213;32.654;-115.458;2022-08-19T02:14:31;100417.22;;;39.24;27.36
59409;BME280;45213;32.654;-115.458;2022-08-19T02:16:59;100414.94;;;39.13;27.19
59409;BME280;45213;32.654;-115.458;2022-08-19T02:19:26;100419.47;;;38.98;28.63
59409;BME280;45213;32.654;-115.458;2022-08-19T02:21:53;100416.16;;;38.79;28.21
59409;BME280;45213;32.654;-115.458;2022-08-19T02:24:20;100423.69;;;38.69;28.21
59409;BME280;45213;32.654;-115.458;2022-08-19T02:26:47;100436.44;;;38.69;27.68
59409;BME280;45213;32.654;-115.458;2022-08-19T02:29:13;100437.28;;;38.69;27.98
59409;BME280;45213;32.654;-115.458;2022-08-19T02:31:39;100434.56;;;38.69;27.99
59409;BME280;45213;32.654;-115.458;2022-08-19T02:34:06;100439.63;;;38.72;28.32
59409;BME280;45213;32.654;-115.458;2022-08-19T02:36:33;100448.69;;;38.73;27.93
59409;BME280;45213;32.654;-115.458;2022-08-19T02:39:00;100454.59;;;38.76;27.73
59409;BME280;45213;32.654;-115.458;2022-08-19T02:41:30;100461.75;;;38.77;27.30
59409;BME280;45213;32.654;-115.458;2022-08-19T02:43:57;100460.03;;;38.76;27.64
59409;BME280;45213;32.654;-115.458;2022-08-19T02:46:27;100468.47;;;38.90;27.26
59409;BME280;45213;32.654;-115.458;2022-08-19T02:48:58;100463.56;;;38.85;27.47
59409;BME280;45213;32.654;-115.458;2022-08-19T02:51:32;100473.63;;;38.76;27.67
59409;BME280;45213;32.654;-115.458;2022-08-19T02:53:59;100464.56;;;38.61;27.51
59409;BME280;45213;32.654;-115.458;2022-08-19T02:56:26;100491.22;;;38.66;27.71
59409;BME280;45213;32.654;-115.458;2022-08-19T02:58:54;100485.66;;;38.59;28.00
59409;BME280;45213;32.654;-115.458;2022-08-19T03:01:28;100491.41;;;38.56;27.55
59409;BME280;45213;32.654;-115.458;2022-08-19T03:03:55;100499.41;;;38.57;27.67
59409;BME280;45213;32.654;-115.458;2022-08-19T03:06:23;100505.69;;;38.58;27.38
59409;BME280;45213;32.654;-115.458;2022-08-19T03:08:50;100524.34;;;38.77;26.94
59409;BME280;45213;32.654;-115.458;2022-08-19T03:13:46;100535.63;;;38.58;32.24
59409;BME280;45213;32.654;-115.458;2022-08-19T03:16:15;100546.84;;;38.47;33.30
59409;BME280;45213;32.654;-115.458;2022-08-19T03:18:42;100544.84;;;38.24;34.00
59409;BME280;45213;32.654;-115.458;2022-08-19T03:21:09;100552.69;;;38.11;34.10
59409;BME280;45213;32.654;-115.458;2022-08-19T03:23:40;100560.19;;;38.09;34.53
59409;BME280;45213;32.654;-115.458;2022-08-19T03:26:07;100547.41;;;37.93;35.37
59409;BME280;45213;32.654;-115.458;2022-08-19T03:28:33;100557.25;;;37.94;35.42
59409;BME280;45213;32.654;-115.458;2022-08-19T03:31:03;100566.78;;;37.81;35.79
59409;BME280;45213;32.654;-115.458;2022-08-19T03:33:31;100564.22;;;37.72;35.90
59409;BME280;45213;32.654;-115.458;2022-08-19T03:36:11;100567.09;;;37.62;35.97
59409;BME280;45213;32.654;-115.458;2022-08-19T03:38:47;100574.91;;;37.65;36.04
59409;BME280;45213;32.654;-115.458;2022-08-19T03:41:16;100568.28;;;37.68;36.12
59409;BME280;45213;32.654;-115.458;2022-08-19T03:43:44;100577.13;;;37.61;36.11
59409;BME280;45213;32.654;-115.458;2022-08-19T03:46:15;100578.06;;;37.44;36.43
59409;BME280;45213;32.654;-115.458;2022-08-19T03:48:43;100582.81;;;37.34;36.79
59409;BME280;45213;32.654;-115.458;2022-08-19T03:51:18;100579.03;;;37.27;36.93
59409;BME280;45213;32.654;-115.458;2022-08-19T03:53:46;100586.66;;;37.23;36.93
59409;BME280;45213;32.654;-115.458;2022-08-19T03:56:14;100586.81;;;37.22;36.49
59409;BME280;45213;32.654;-115.458;2022-08-19T03:58:41;100591.38;;;37.13;36.58
59409;BME280;45213;32.654;-115.458;2022-08-19T04:01:10;100594.56;;;37.08;37.00
59409;BME280;45213;32.654;-115.458;2022-08-19T04:03:40;100565.31;;;36.94;36.54
59409;BME280;45213;32.654;-115.458;2022-08-19T04:06:14;100591.13;;;36.98;37.10
59409;BME280;45213;32.654;-115.458;2022-08-19T04:08:45;100580.06;;;36.91;37.32
59409;BME280;45213;32.654;-115.458;2022-08-19T04:11:15;100588.22;;;36.91;37.28
59409;BME280;45213;32.654;-115.458;2022-08-19T04:13:46;100585.78;;;36.80;37.59
59409;BME280;45213;32.654;-115.458;2022-08-19T04:16:13;100592.38;;;36.77;37.15
59409;BME280;45213;32.654;-115.458;2022-08-19T04:18:42;100584.56;;;36.74;37.56
59409;BME280;45213;32.654;-115.458;2022-08-19T04:21:23;100592.69;;;36.74;37.23
59409;BME280;45213;32.654;-115.458;2022-08-19T04:23:50;100584.19;;;36.69;37.24
59409;BME280;45213;32.654;-115.458;2022-08-19T04:26:22;100590.31;;;36.71;37.65
59409;BME280;45213;32.654;-115.458;2022-08-19T04:28:49;100593.03;;;36.71;37.35
59409;BME280;45213;32.654;-115.458;2022-08-19T04:31:23;100582.28;;;36.62;37.60
59409;BME280;45213;32.654;-115.458;2022-08-19T04:33:54;100578.56;;;36.63;37.61
59409;BME280;45213;32.654;-115.458;2022-08-19T04:36:25;100596.69;;;36.62;37.44
59409;BME280;45213;32.654;-115.458;2022-08-19T04:39:05;100596.31;;;36.57;38.05
59409;BME280;45213;32.654;-115.458;2022-08-19T04:41:33;100592.91;;;36.55;37.89
59409;BME280;45213;32.654;-115.458;2022-08-19T04:44:18;100599.03;;;36.57;38.02
59409;BME280;45213;32.654;-115.458;2022-08-19T04:46:46;100601.81;;;36.47;38.74
59409;BME280;45213;32.654;-115.458;2022-08-19T04:49:15;100598.16;;;36.30;38.66
59409;BME280;45213;32.654;-115.458;2022-08-19T04:51:45;100603.19;;;36.25;38.51
59409;BME280;45213;32.654;-115.458;2022-08-19T04:54:14;100597.56;;;36.19;39.62
59409;BME280;45213;32.654;-115.458;2022-08-19T04:56:41;100599.91;;;36.13;38.93
59409;BME280;45213;32.654;-115.458;2022-08-19T04:59:08;100584.78;;;36.11;39.34
59409;BME280;45213;32.654;-115.458;2022-08-19T05:01:34;100600.34;;;36.09;39.48
59409;BME280;45213;32.654;-115.458;2022-08-19T05:04:06;100609.09;;;36.03;39.03
59409;BME280;45213;32.654;-115.458;2022-08-19T05:06:34;100598.25;;;36.03;39.31
59409;BME280;45213;32.654;-115.458;2022-08-19T05:09:04;100603.66;;;36.03;38.85
59409;BME280;45213;32.654;-115.458;2022-08-19T05:11:34;100601.44;;;35.98;39.34
59409;BME280;45213;32.654;-115.458;2022-08-19T05:14:08;100604.44;;;35.95;39.19
59409;BME280;45213;32.654;-115.458;2022-08-19T05:16:35;100602.13;;;35.82;39.24
59409;BME280;45213;32.654;-115.458;2022-08-19T05:19:02;100612.72;;;35.75;39.85
59409;BME280;45213;32.654;-115.458;2022-08-19T05:21:46;100599.50;;;35.72;39.86
59409;BME280;45213;32.654;-115.458;2022-08-19T05:24:31;100584.25;;;35.71;40.02
59409;BME280;45213;32.654;-115.458;2022-08-19T05:27:00;100584.31;;;35.62;39.82
59409;BME280;45213;32.654;-115.458;2022-08-19T05:29:29;100583.16;;;35.64;39.13
59409;BME280;45213;32.654;-115.458;2022-08-19T05:31:58;100587.41;;;35.67;39.17
59409;BME280;45213;32.654;-115.458;2022-08-19T05:34:26;100578.63;;;35.55;39.40
59409;BME280;45213;32.654;-115.458;2022-08-19T05:36:58;100586.28;;;35.60;39.17
59409;BME280;45213;32.654;-115.458;2022-08-19T05:39:28;100588.00;;;35.61;38.67
59409;BME280;45213;32.654;-115.458;2022-08-19T05:41:58;100588.16;;;35.59;38.80
59409;BME280;45213;32.654;-115.458;2022-08-19T05:44:27;100586.63;;;35.57;38.85
59409;BME280;45213;32.654;-115.458;2022-08-19T05:46:56;100589.47;;;35.55;38.58
59409;BME280;45213;32.654;-115.458;2022-08-19T05:49:24;100605.00;;;35.53;39.39
59409;BME280;45213;32.654;-115.458;2022-08-19T05:51:51;100607.72;;;35.53;38.36
59409;BME280;45213;32.654;-115.458;2022-08-19T05:54:18;100612.03;;;35.46;38.01
59409;BME280;45213;32.654;-115.458;2022-08-19T05:56:45;100600.97;;;35.39;38.67
59409;BME280;45213;32.654;-115.458;2022-08-19T05:59:15;100638.50;;;35.52;38.93
59409;BME280;45213;32.654;-115.458;2022-08-19T06:01:45;100646.78;;;35.50;38.70
59409;BME280;45213;32.654;-115.458;2022-08-19T06:04:14;100661.56;;;35.56;39.21
59409;BME280;45213;32.654;-115.458;2022-08-19T06:06:40;100693.59;;;35.61;38.83
59409;BME280;45213;32.654;-115.458;2022-08-19T06:09:08;100700.63;;;35.53;38.94
59409;BME280;45213;32.654;-115.458;2022-08-19T06:11:41;100756.50;;;35.64;38.71
59409;BME280;45213;32.654;-115.458;2022-08-19T06:14:14;100798.97;;;35.54;39.53
59409;BME280;45213;32.654;-115.458;2022-08-19T06:16:41;100827.81;;;35.06;42.44
59409;BME280;45213;32.654;-115.458;2022-08-19T06:19:14;100823.41;;;34.57;44.87
59409;BME280;45213;32.654;-115.458;2022-08-19T06:21:44;100799.06;;;34.27;45.60
59409;BME280;45213;32.654;-115.458;2022-08-19T06:24:15;100816.53;;;34.33;45.75
59409;BME280;45213;32.654;-115.458;2022-08-19T06:26:44;100811.56;;;34.28;45.74
59409;BME280;45213;32.654;-115.458;2022-08-19T06:29:13;100803.88;;;34.34;44.93
59409;BME280;45213;32.654;-115.458;2022-08-19T06:31:42;100801.28;;;34.22;44.96
59409;BME280;45213;32.654;-115.458;2022-08-19T06:34:10;100794.19;;;34.12;44.33
59409;BME280;45213;32.654;-115.458;2022-08-19T06:36:40;100792.75;;;34.17;43.94
59409;BME280;45213;32.654;-115.458;2022-08-19T06:39:16;100786.00;;;34.02;43.84
59409;BME280;45213;32.654;-115.458;2022-08-19T06:41:47;100800.94;;;33.96;43.37
59409;BME280;45213;32.654;-115.458;2022-08-19T06:44:20;100792.91;;;33.75;43.56
59409;BME280;45213;32.654;-115.458;2022-08-19T06:46:47;100815.25;;;33.77;43.57
59409;BME280;45213;32.654;-115.458;2022-08-19T06:49:16;100841.38;;;33.56;44.33
59409;BME280;45213;32.654;-115.458;2022-08-19T06:51:45;100844.50;;;33.09;45.39
59409;BME280;45213;32.654;-115.458;2022-08-19T06:54:16;100830.94;;;32.88;46.18
59409;BME280;45213;32.654;-115.458;2022-08-19T06:56:44;100829.88;;;32.79;46.81
59409;BME280;45213;32.654;-115.458;2022-08-19T06:59:15;100810.75;;;32.61;46.86
59409;BME280;45213;32.654;-115.458;2022-08-19T07:01:50;100796.66;;;32.58;46.98
59409;BME280;45213;32.654;-115.458;2022-08-19T07:04:20;100796.13;;;32.64;46.67
59409;BME280;45213;32.654;-115.458;2022-08-19T07:06:47;100803.22;;;32.65;46.06
59409;BME280;45213;32.654;-115.458;2022-08-19T07:09:15;100809.66;;;32.53;45.47
59409;BME280;45213;32.654;-115.458;2022-08-19T07:11:47;100797.75;;;32.55;45.60
59409;BME280;45213;32.654;-115.458;2022-08-19T07:14:19;100787.03;;;32.33;46.26
59409;BME280;45213;32.654;-115.458;2022-08-19T07:16:48;100779.44;;;32.27;46.60
59409;BME280;45213;32.654;-115.458;2022-08-19T07:19:16;100779.31;;;32.28;46.07
59409;BME280;45213;32.654;-115.458;2022-08-19T07:21:43;100761.13;;;32.09;46.17
59409;BME280;45213;32.654;-115.458;2022-08-19T07:24:10;100795.84;;;32.35;46.06
59409;BME280;45213;32.654;-115.458;2022-08-19T07:26:43;100790.59;;;32.22;46.16
59409;BME280;45213;32.654;-115.458;2022-08-19T07:29:13;100793.63;;;32.29;46.12
59409;BME280;45213;32.654;-115.458;2022-08-19T07:31:40;100803.72;;;32.15;45.99
59409;BME280;45213;32.654;-115.458;2022-08-19T07:34:08;100806.63;;;32.23;46.36
59409;BME280;45213;32.654;-115.458;2022-08-19T07:36:40;100826.00;;;32.06;47.04
59409;BME280;45213;32.654;-115.458;2022-08-19T07:39:14;100818.44;;;31.77;48.38
59409;BME280;45213;32.654;-115.458;2022-08-19T07:41:41;100787.06;;;31.42;47.95
59409;BME280;45213;32.654;-115.458;2022-08-19T07:44:09;100841.94;;;31.40;48.33
59409;BME280;45213;32.654;-115.458;2022-08-19T07:46:39;100824.19;;;31.26;48.44
59409;BME280;45213;32.654;-115.458;2022-08-19T07:49:10;100814.66;;;31.22;48.92
59409;BME280;45213;32.654;-115.458;2022-08-19T07:51:53;100818.78;;;31.15;49.05
59409;BME280;45213;32.654;-115.458;2022-08-19T07:54:21;100823.59;;;30.87;49.53
59409;BME280;45213;32.654;-115.458;2022-08-19T07:56:49;100818.25;;;30.74;50.39
59409;BME280;45213;32.654;-115.458;2022-08-19T07:59:17;100797.03;;;30.58;51.03
59409;BME280;45213;32.654;-115.458;2022-08-19T08:01:45;100794.84;;;30.52;51.33
59409;BME280;45213;32.654;-115.458;2022-08-19T08:04:12;100815.50;;;30.63;51.77
59409;BME280;45213;32.654;-115.458;2022-08-19T08:06:56;100804.84;;;30.50;52.15
59409;BME280;45213;32.654;-115.458;2022-08-19T08:09:43;100787.06;;;30.36;51.60
59409;BME280;45213;32.654;-115.458;2022-08-19T08:12:16;100793.03;;;30.40;51.86
59409;BME280;45213;32.654;-115.458;2022-08-19T08:14:46;100782.06;;;30.43;51.81
59409;BME280;45213;32.654;-115.458;2022-08-19T08:17:15;100808.47;;;30.49;51.71
59409;BME280;45213;32.654;-115.458;2022-08-19T08:19:44;100808.72;;;30.46;51.53
59409;BME280;45213;32.654;-115.458;2022-08-19T08:22:15;100811.16;;;30.49;51.27
59409;BME280;45213;32.654;-115.458;2022-08-19T08:25:07;100813.47;;;30.67;50.49
59409;BME280;45213;32.654;-115.458;2022-08-19T08:27:39;100806.88;;;30.71;50.40
59409;BME280;45213;32.654;-115.458;2022-08-19T08:30:09;100801.97;;;30.65;50.31
59409;BME280;45213;32.654;-115.458;2022-08-19T08:32:37;100786.94;;;30.62;50.68
59409;BME280;45213;32.654;-115.458;2022-08-19T08:35:06;100801.56;;;30.58;50.58
59409;BME280;45213;32.654;-115.458;2022-08-19T08:37:33;100800.94;;;30.54;50.50
59409;BME280;45213;32.654;-115.458;2022-08-19T08:40:27;100793.34;;;30.48;50.53
59409;BME280;45213;32.654;-115.458;2022-08-19T08:46:06;100787.13;;;30.48;50.32
59409;BME280;45213;32.654;-115.458;2022-08-19T08:48:56;100781.00;;;30.46;50.30
59409;BME280;45213;32.654;-115.458;2022-08-19T08:51:37;100778.81;;;30.51;50.23
59409;BME280;45213;32.654;-115.458;2022-08-19T08:54:05;100780.03;;;30.47;50.15
59409;BME280;45213;32.654;-115.458;2022-08-19T08:56:33;100758.41;;;30.48;50.29
59409;BME280;45213;32.654;-115.458;2022-08-19T08:59:04;100738.97;;;30.45;50.18
59409;BME280;45213;32.654;-115.458;2022-08-19T09:01:35;100736.63;;;30.40;49.81
59409;BME280;45213;32.654;-115.458;2022-08-19T09:04:07;100758.06;;;30.53;49.92
59409;BME280;45213;32.654;-115.458;2022-08-19T09:09:30;100749.69;;;30.69;49.27
59409;BME280;45213;32.654;-115.458;2022-08-19T09:14:50;100734.69;;;30.66;48.70
59409;BME280;45213;32.654;-115.458;2022-08-19T09:17:26;100737.16;;;30.80;48.51
59409;BME280;45213;32.654;-115.458;2022-08-19T09:22:41;100745.38;;;30.90;48.01
59409;BME280;45213;32.654;-115.458;2022-08-19T09:25:14;100706.84;;;30.78;48.20
59409;BME280;45213;32.654;-115.458;2022-08-19T09:27:41;100729.03;;;30.93;48.25
59409;BME280;45213;32.654;-115.458;2022-08-19T09:30:17;100691.56;;;30.79;48.08
59409;BME280;45213;32.654;-115.458;2022-08-19T09:32:45;100719.50;;;31.00;48.13
59409;BME280;45213;32.654;-115.458;2022-08-19T09:35:12;100703.38;;;31.00;48.32
59409;BME280;45213;32.654;-115.458;2022-08-19T09:37:40;100703.13;;;31.04;48.18
59409;BME280;45213;32.654;-115.458;2022-08-19T09:40:07;100704.59;;;31.08;48.46
59409;BME280;45213;32.654;-115.458;2022-08-19T09:42:34;100701.19;;;31.17;48.36
59409;BME280;45213;32.654;-115.458;2022-08-19T09:45:01;100693.38;;;31.25;48.33
59409;BME280;45213;32.654;-115.458;2022-08-19T09:47:29;100695.69;;;31.30;48.12
59409;BME280;45213;32.654;-115.458;2022-08-19T09:49:56;100681.88;;;31.34;48.62
59409;BME280;45213;32.654;-115.458;2022-08-19T09:52:23;100674.78;;;31.33;48.75
59409;BME280;45213;32.654;-115.458;2022-08-19T09:54:54;100684.59;;;31.46;48.51
59409;BME280;45213;32.654;-115.458;2022-08-19T09:57:21;100690.34;;;31.41;48.54
59409;BME280;45213;32.654;-115.458;2022-08-19T09:59:48;100667.06;;;31.29;48.38
59409;BME280;45213;32.654;-115.458;2022-08-19T10:02:14;100678.19;;;31.35;48.70
59409;BME280;45213;32.654;-115.458;2022-08-19T10:04:41;100674.28;;;31.39;48.63
59409;BME280;45213;32.654;-115.458;2022-08-19T10:07:29;100669.88;;;31.38;48.78
59409;BME280;45213;32.654;-115.458;2022-08-19T10:09:56;100671.13;;;31.34;48.69
59409;BME280;45213;32.654;-115.458;2022-08-19T10:12:23;100667.31;;;31.37;48.50
59409;BME280;45213;32.654;-115.458;2022-08-19T10:14:49;100674.06;;;31.42;48.46
59409;BME280;45213;32.654;-115.458;2022-08-19T10:17:19;100683.72;;;31.45;48.26
59409;BME280;45213;32.654;-115.458;2022-08-19T10:19:46;100680.91;;;31.47;47.93
59409;BME280;45213;32.654;-115.458;2022-08-19T10:22:13;100673.31;;;31.52;48.25
59409;BME280;45213;32.654;-115.458;2022-08-19T10:24:40;100665.50;;;31.49;48.44
59409;BME280;45213;32.654;-115.458;2022-08-19T10:27:07;100659.75;;;31.53;47.71
59409;BME280;45213;32.654;-115.458;2022-08-19T10:29:35;100665.88;;;31.55;47.90
59409;BME280;45213;32.654;-115.458;2022-08-19T10:32:04;100668.19;;;31.49;48.07
59409;BME280;45213;32.654;-115.458;2022-08-19T10:34:35;100660.38;;;31.34;48.09
59409;BME280;45213;32.654;-115.458;2022-08-19T10:37:03;100663.06;;;31.34;48.32
59409;BME280;45213;32.654;-115.458;2022-08-19T10:39:34;100675.03;;;31.30;47.74
59409;BME280;45213;32.654;-115.458;2022-08-19T10:42:05;100643.50;;;31.21;47.67
59409;BME280;45213;32.654;-115.458;2022-08-19T10:44:37;100660.38;;;31.34;47.31
59409;BME280;45213;32.654;-115.458;2022-08-19T10:47:04;100669.31;;;31.46;47.55
59409;BME280;45213;32.654;-115.458;2022-08-19T10:49:30;100668.91;;;31.39;48.03
59409;BME280;45213;32.654;-115.458;2022-08-19T10:52:00;100672.56;;;31.38;47.97
59409;BME280;45213;32.654;-115.458;2022-08-19T10:54:48;100671.38;;;31.42;47.94
59409;BME280;45213;32.654;-115.458;2022-08-19T10:57:32;100690.22;;;31.42;48.11
59409;BME280;45213;32.654;-115.458;2022-08-19T10:59:59;100676.13;;;31.28;48.36
59409;BME280;45213;32.654;-115.458;2022-08-19T11:02:26;100675.75;;;31.21;49.47
59409;BME280;45213;32.654;-115.458;2022-08-19T11:04:52;100665.22;;;31.07;50.90
59409;BME280;45213;32.654;-115.458;2022-08-19T11:07:19;100678.94;;;31.04;51.16
59409;BME280;45213;32.654;-115.458;2022-08-19T11:09:47;100667.88;;;30.84;51.75
59409;BME280;45213;32.654;-115.458;2022-08-19T11:12:13;100680.56;;;30.71;52.36
59409;BME280;45213;32.654;-115.458;2022-08-19T11:14:41;100683.97;;;30.62;52.55
59409;BME280;45213;32.654;-115.458;2022-08-19T11:17:08;100665.59;;;30.44;52.77
59409;BME280;45213;32.654;-115.458;2022-08-19T11:19:34;100676.34;;;30.44;53.08
59409;BME280;45213;32.654;-115.458;2022-08-19T11:22:01;100670.69;;;30.36;53.23
59409;BME280;45213;32.654;-115.458;2022-08-19T11:24:31;100665.03;;;30.28;53.53
59409;BME280;45213;32.654;-115.458;2022-08-19T11:27:09;100663.09;;;30.30;53.15
59409;BME280;45213;32.654;-115.458;2022-08-19T11:29:38;100672.97;;;30.29;53.71
59409;BME280;45213;32.654;-115.458;2022-08-19T11:32:07;100660.56;;;30.15;53.89
59409;BME280;45213;32.654;-115.458;2022-08-19T11:34:36;100684.28;;;30.22;54.14
59409;BME280;45213;32.654;-115.458;2022-08-19T11:37:03;100674.50;;;30.21;54.16
59409;BME280;45213;32.654;-115.458;2022-08-19T11:39:34;100667.66;;;30.16;54.51
59409;BME280;45213;32.654;-115.458;2022-08-19T11:42:04;100676.81;;;30.14;54.43
59409;BME280;45213;32.654;-115.458;2022-08-19T11:44:52;100672.28;;;30.14;54.78
59409;BME280;45213;32.654;-115.458;2022-08-19T11:47:19;100682.63;;;30.08;54.79
59409;BME280;45213;32.654;-115.458;2022-08-19T11:49:47;100684.25;;;29.97;55.31
59409;BME280;45213;32.654;-115.458;2022-08-19T11:52:14;100681.47;;;29.99;55.22
59409;BME280;45213;32.654;-115.458;2022-08-19T11:54:43;100691.75;;;30.05;55.10
59409;BME280;45213;32.654;-115.458;2022-08-19T11:57:10;100702.50;;;30.05;55.05
59409;BME280;45213;32.654;-115.458;2022-08-19T11:59:37;100692.22;;;29.99;55.25
59409;BME280;45213;32.654;-115.458;2022-08-19T12:02:03;100693.06;;;30.00;55.19
59409;BME280;45213;32.654;-115.458;2022-08-19T12:04:30;100688.50;;;29.89;55.12
59409;BME280;45213;32.654;-115.458;2022-08-19T12:06:56;100707.47;;;29.98;55.34
59409;BME280;45213;32.654;-115.458;2022-08-19T12:09:23;100701.47;;;29.95;55.38
59409;BME280;45213;32.654;-115.458;2022-08-19T12:11:50;100699.75;;;29.94;55.14
59409;BME280;45213;32.654;-115.458;2022-08-19T12:14:17;100702.78;;;29.89;55.33
59409;BME280;45213;32.654;-115.458;2022-08-19T12:16:45;100712.66;;;29.89;55.60
59409;BME280;45213;32.654;-115.458;2022-08-19T12:19:12;100710.31;;;29.84;55.88
59409;BME280;45213;32.654;-115.458;2022-08-19T12:21:39;100719.44;;;29.82;56.11
59409;BME280;45213;32.654;-115.458;2022-08-19T12:24:06;100721.25;;;29.81;56.14
59409;BME280;45213;32.654;-115.458;2022-08-19T12:26:34;100732.75;;;29.83;56.27
59409;BME280;45213;32.654;-115.458;2022-08-19T12:29:00;100732.13;;;29.80;56.73
59409;BME280;45213;32.654;-115.458;2022-08-19T12:31:28;100713.13;;;29.70;56.02
59409;BME280;45213;32.654;-115.458;2022-08-19T12:33:55;100729.53;;;29.65;56.45
59409;BME280;45213;32.654;-115.458;2022-08-19T12:36:21;100716.78;;;29.56;56.64
59409;BME280;45213;32.654;-115.458;2022-08-19T12:38:49;100739.50;;;29.63;56.88
59409;BME280;45213;32.654;-115.458;2022-08-19T12:41:16;100737.59;;;29.65;56.46
59409;BME280;45213;32.654;-115.458;2022-08-19T12:43:45;100745.88;;;29.62;56.85
59409;BME280;45213;32.654;-115.458;2022-08-19T12:46:11;100766.47;;;29.62;56.74
59409;BME280;45213;32.654;-115.458;2022-08-19T12:48:38;100759.09;;;29.52;56.88